sensor_id;sensor_type;location;lat;lon;timestamp;P1;durP1;ratioP1;P2;durP2;ratioP2
3845;SDS011;1938;50.812;7.738;2023-03-19T00:02:24;7.77;;;3.33;;
3845;SDS011;1938;50.812;7.738;2023-03-19T00:04:50;13.40;;;4.77;;
3845;SDS011;1938;50.812;7.738;2023-03-19T00:07:15;11.67;;;4.03;;
3845;SDS011;1938;50.812;7.738;2023-03-19T00:09:42;7.63;;;4.10;;
3845;SDS011;1938;50.812;7.738;2023-03-19T00:12:09;8.80;;;4.70;;
3845;SDS011;1938;50.812;7.738;2023-03-19T00:14:36;9.83;;;3.93;;
3845;SDS011;1938;50.812;7.738;2023-03-19T00:17:02;9.90;;;4.50;;
3845;SDS011;1938;50.812;7.738;2023-03-19T00:19:27;8.00;;;3.90;;
3845;SDS011;1938;50.812;7.738;2023-03-19T00:21:53;12.87;;;4.93;;
3845;SDS011;1938;50.812;7.738;2023-03-19T00:24:19;10.40;;;4.50;;
3845;SDS011;1938;50.812;7.738;2023-03-19T00:26:44;10.60;;;4.50;;
3845;SDS011;1938;50.812;7.738;2023-03-19T00:29:11;7.67;;;4.20;;
3845;SDS011;1938;50.812;7.738;2023-03-19T00:31:39;13.40;;;5.60;;
3845;SDS011;1938;50.812;7.738;2023-03-19T00:34:05;16.43;;;5.97;;
3845;SDS011;1938;50.812;7.738;2023-03-19T00:36:32;8.53;;;4.70;;
3845;SDS011;1938;50.812;7.738;2023-03-19T00:38:58;12.50;;;5.10;;
3845;SDS011;1938;50.812;7.738;2023-03-19T00:41:23;12.50;;;4.40;;
3845;SDS011;1938;50.812;7.738;2023-03-19T00:43:53;13.10;;;3.90;;
3845;SDS011;1938;50.812;7.738;2023-03-19T00:46:19;14.60;;;5.07;;
3845;SDS011;1938;50.812;7.738;2023-03-19T00:48:45;8.30;;;4.47;;
3845;SDS011;1938;50.812;7.738;2023-03-19T00:51:11;11.90;;;5.03;;
3845;SDS011;1938;50.812;7.738;2023-03-19T00:53:37;9.07;;;4.80;;
3845;SDS011;1938;50.812;7.738;2023-03-19T00:56:07;11.73;;;5.23;;
3845;SDS011;1938;50.812;7.738;2023-03-19T00:58:34;13.97;;;5.17;;
3845;SDS011;1938;50.812;7.738;2023-03-19T01:01:01;9.10;;;5.03;;
3845;SDS011;1938;50.812;7.738;2023-03-19T01:03:26;9.77;;;5.40;;
3845;SDS011;1938;50.812;7.738;2023-03-19T01:05:53;14.43;;;4.60;;
3845;SDS011;1938;50.812;7.738;2023-03-19T01:08:19;10.70;;;4.67;;
3845;SDS011;1938;50.812;7.738;2023-03-19T01:10:44;11.93;;;5.10;;
3845;SDS011;1938;50.812;7.738;2023-03-19T01:13:10;7.20;;;4.10;;
3845;SDS011;1938;50.812;7.738;2023-03-19T01:15:37;11.70;;;5.37;;
3845;SDS011;1938;50.812;7.738;2023-03-19T01:18:04;12.87;;;6.13;;
3845;SDS011;1938;50.812;7.738;2023-03-19T01:20:30;8.27;;;5.03;;
3845;SDS011;1938;50.812;7.738;2023-03-19T01:22:56;12.77;;;5.80;;
3845;SDS011;1938;50.812;7.738;2023-03-19T01:25:22;11.97;;;4.80;;
3845;SDS011;1938;50.812;7.738;2023-03-19T01:27:47;9.53;;;5.43;;
3845;SDS011;1938;50.812;7.738;2023-03-19T01:30:14;12.20;;;5.67;;
3845;SDS011;1938;50.812;7.738;2023-03-19T01:32:41;10.90;;;5.20;;
3845;SDS011;1938;50.812;7.738;2023-03-19T01:35:06;12.53;;;5.23;;
3845;SDS011;1938;50.812;7.738;2023-03-19T01:37:33;10.40;;;5.53;;
3845;SDS011;1938;50.812;7.738;2023-03-19T01:39:59;9.47;;;5.30;;
3845;SDS011;1938;50.812;7.738;2023-03-19T01:42:25;14.03;;;6.50;;
3845;SDS011;1938;50.812;7.738;2023-03-19T01:44:50;13.30;;;5.30;;
3845;SDS011;1938;50.812;7.738;2023-03-19T01:47:17;9.20;;;6.00;;
3845;SDS011;1938;50.812;7.738;2023-03-19T01:49:52;10.20;;;5.30;;
3845;SDS011;1938;50.812;7.738;2023-03-19T01:52:20;11.30;;;5.60;;
3845;SDS011;1938;50.812;7.738;2023-03-19T01:54:47;11.10;;;5.30;;
3845;SDS011;1938;50.812;7.738;2023-03-19T01:57:13;11.93;;;6.00;;
3845;SDS011;1938;50.812;7.738;2023-03-19T01:59:47;15.60;;;5.80;;
3845;SDS011;1938;50.812;7.738;2023-03-19T02:02:24;9.30;;;5.03;;
3845;SDS011;1938;50.812;7.738;2023-03-19T02:04:57;9.57;;;5.10;;
3845;SDS011;1938;50.812;7.738;2023-03-19T02:07:28;11.93;;;5.10;;
3845;SDS011;1938;50.812;7.738;2023-03-19T02:09:56;12.80;;;6.10;;
3845;SDS011;1938;50.812;7.738;2023-03-19T02:12:23;9.67;;;4.83;;
3845;SDS011;1938;50.812;7.738;2023-03-19T02:14:49;13.37;;;6.10;;
3845;SDS011;1938;50.812;7.738;2023-03-19T02:17:15;9.40;;;5.17;;
3845;SDS011;1938;50.812;7.738;2023-03-19T02:22:30;14.83;;;6.00;;
3845;SDS011;1938;50.812;7.738;2023-03-19T02:27:34;10.97;;;5.97;;
3845;SDS011;1938;50.812;7.738;2023-03-19T02:30:08;9.80;;;5.20;;
3845;SDS011;1938;50.812;7.738;2023-03-19T02:32:46;10.60;;;6.13;;
3845;SDS011;1938;50.812;7.738;2023-03-19T02:35:11;9.13;;;4.90;;
3845;SDS011;1938;50.812;7.738;2023-03-19T02:37:37;9.20;;;4.70;;
3845;SDS011;1938;50.812;7.738;2023-03-19T02:42:32;8.50;;;5.57;;
3845;SDS011;1938;50.812;7.738;2023-03-19T02:44:58;13.00;;;4.60;;
3845;SDS011;1938;50.812;7.738;2023-03-19T02:47:25;8.23;;;4.80;;
3845;SDS011;1938;50.812;7.738;2023-03-19T02:49:51;11.17;;;4.90;;
3845;SDS011;1938;50.812;7.738;2023-03-19T02:52:17;7.70;;;4.60;;
3845;SDS011;1938;50.812;7.738;2023-03-19T02:54:44;9.30;;;4.63;;
3845;SDS011;1938;50.812;7.738;2023-03-19T02:57:10;9.30;;;4.97;;
3845;SDS011;1938;50.812;7.738;2023-03-19T02:59:36;11.43;;;5.07;;
3845;SDS011;1938;50.812;7.738;2023-03-19T03:02:02;14.13;;;6.53;;
3845;SDS011;1938;50.812;7.738;2023-03-19T03:04:28;14.50;;;5.17;;
3845;SDS011;1938;50.812;7.738;2023-03-19T03:06:54;7.50;;;4.80;;
3845;SDS011;1938;50.812;7.738;2023-03-19T03:09:21;9.90;;;5.80;;
3845;SDS011;1938;50.812;7.738;2023-03-19T03:11:47;14.27;;;5.20;;
3845;SDS011;1938;50.812;7.738;2023-03-19T03:14:13;10.40;;;5.10;;
3845;SDS011;1938;50.812;7.738;2023-03-19T03:16:38;8.33;;;4.23;;
3845;SDS011;1938;50.812;7.738;2023-03-19T03:19:04;11.10;;;4.87;;
3845;SDS011;1938;50.812;7.738;2023-03-19T03:21:31;10.53;;;5.00;;
3845;SDS011;1938;50.812;7.738;2023-03-19T03:23:57;10.47;;;5.20;;
3845;SDS011;1938;50.812;7.738;2023-03-19T03:26:23;7.97;;;5.33;;
3845;SDS011;1938;50.812;7.738;2023-03-19T03:28:50;16.20;;;5.50;;
3845;SDS011;1938;50.812;7.738;2023-03-19T03:31:16;9.60;;;4.70;;
3845;SDS011;1938;50.812;7.738;2023-03-19T03:33:42;9.93;;;4.10;;
3845;SDS011;1938;50.812;7.738;2023-03-19T03:36:07;9.53;;;4.37;;
3845;SDS011;1938;50.812;7.738;2023-03-19T03:38:34;7.10;;;3.90;;
3845;SDS011;1938;50.812;7.738;2023-03-19T03:41:00;9.83;;;4.60;;
3845;SDS011;1938;50.812;7.738;2023-03-19T03:43:25;8.07;;;4.60;;
3845;SDS011;1938;50.812;7.738;2023-03-19T03:45:52;9.90;;;5.00;;
3845;SDS011;1938;50.812;7.738;2023-03-19T03:48:18;13.70;;;5.77;;
3845;SDS011;1938;50.812;7.738;2023-03-19T03:50:44;9.10;;;5.60;;
3845;SDS011;1938;50.812;7.738;2023-03-19T03:53:10;9.27;;;4.70;;
3845;SDS011;1938;50.812;7.738;2023-03-19T03:55:37;8.70;;;5.30;;
3845;SDS011;1938;50.812;7.738;2023-03-19T03:58:03;9.33;;;4.43;;
3845;SDS011;1938;50.812;7.738;2023-03-19T04:00:29;13.03;;;5.10;;
3845;SDS011;1938;50.812;7.738;2023-03-19T04:02:55;9.50;;;5.30;;
3845;SDS011;1938;50.812;7.738;2023-03-19T04:05:20;6.93;;;4.60;;
3845;SDS011;1938;50.812;7.738;2023-03-19T04:07:46;10.73;;;4.77;;
3845;SDS011;1938;50.812;7.738;2023-03-19T04:10:12;9.77;;;4.03;;
3845;SDS011;1938;50.812;7.738;2023-03-19T04:12:40;11.50;;;4.30;;
3845;SDS011;1938;50.812;7.738;2023-03-19T04:15:06;10.60;;;4.90;;
3845;SDS011;1938;50.812;7.738;2023-03-19T04:17:34;6.90;;;4.20;;
3845;SDS011;1938;50.812;7.738;2023-03-19T04:19:59;7.27;;;3.97;;
3845;SDS011;1938;50.812;7.738;2023-03-19T04:22:26;14.20;;;4.40;;
3845;SDS011;1938;50.812;7.738;2023-03-19T04:24:51;9.60;;;4.10;;
3845;SDS011;1938;50.812;7.738;2023-03-19T04:27:17;7.27;;;3.30;;
3845;SDS011;1938;50.812;7.738;2023-03-19T04:29:42;7.40;;;3.70;;
3845;SDS011;1938;50.812;7.738;2023-03-19T04:32:08;7.93;;;4.23;;
3845;SDS011;1938;50.812;7.738;2023-03-19T04:34:33;8.03;;;4.00;;
3845;SDS011;1938;50.812;7.738;2023-03-19T04:36:59;14.33;;;4.30;;
3845;SDS011;1938;50.812;7.738;2023-03-19T04:39:26;10.27;;;4.50;;
3845;SDS011;1938;50.812;7.738;2023-03-19T04:41:52;12.80;;;3.50;;
3845;SDS011;1938;50.812;7.738;2023-03-19T04:44:18;7.23;;;3.83;;
3845;SDS011;1938;50.812;7.738;2023-03-19T04:46:43;7.97;;;3.30;;
3845;SDS011;1938;50.812;7.738;2023-03-19T04:49:11;8.60;;;2.93;;
3845;SDS011;1938;50.812;7.738;2023-03-19T04:51:36;10.00;;;3.70;;
3845;SDS011;1938;50.812;7.738;2023-03-19T04:54:02;7.50;;;2.90;;
3845;SDS011;1938;50.812;7.738;2023-03-19T04:56:29;5.80;;;2.77;;
3845;SDS011;1938;50.812;7.738;2023-03-19T04:58:55;7.00;;;3.17;;
3845;SDS011;1938;50.812;7.738;2023-03-19T05:01:20;5.07;;;3.10;;
3845;SDS011;1938;50.812;7.738;2023-03-19T05:03:46;10.63;;;3.70;;
3845;SDS011;1938;50.812;7.738;2023-03-19T05:06:13;8.80;;;3.37;;
3845;SDS011;1938;50.812;7.738;2023-03-19T05:08:39;8.10;;;3.17;;
3845;SDS011;1938;50.812;7.738;2023-03-19T05:11:04;12.50;;;3.73;;
3845;SDS011;1938;50.812;7.738;2023-03-19T05:13:30;6.37;;;2.90;;
3845;SDS011;1938;50.812;7.738;2023-03-19T05:15:55;4.77;;;2.60;;
3845;SDS011;1938;50.812;7.738;2023-03-19T05:18:21;6.33;;;2.80;;
3845;SDS011;1938;50.812;7.738;2023-03-19T05:20:47;7.30;;;2.97;;
3845;SDS011;1938;50.812;7.738;2023-03-19T05:23:13;10.53;;;3.30;;
3845;SDS011;1938;50.812;7.738;2023-03-19T05:25:40;6.33;;;2.43;;
3845;SDS011;1938;50.812;7.738;2023-03-19T05:28:06;7.23;;;3.43;;
3845;SDS011;1938;50.812;7.738;2023-03-19T05:30:32;5.83;;;3.10;;
3845;SDS011;1938;50.812;7.738;2023-03-19T05:32:58;5.40;;;2.77;;
3845;SDS011;1938;50.812;7.738;2023-03-19T05:35:26;4.70;;;2.40;;
3845;SDS011;1938;50.812;7.738;2023-03-19T05:37:53;5.10;;;2.10;;
3845;SDS011;1938;50.812;7.738;2023-03-19T05:40:19;6.50;;;2.83;;
3845;SDS011;1938;50.812;7.738;2023-03-19T05:42:46;7.77;;;2.97;;
3845;SDS011;1938;50.812;7.738;2023-03-19T05:45:12;7.40;;;3.30;;
3845;SDS011;1938;50.812;7.738;2023-03-19T05:47:38;5.43;;;2.93;;
3845;SDS011;1938;50.812;7.738;2023-03-19T05:50:05;9.33;;;3.63;;
3845;SDS011;1938;50.812;7.738;2023-03-19T05:52:31;8.63;;;3.87;;
3845;SDS011;1938;50.812;7.738;2023-03-19T05:54:58;8.10;;;3.10;;
3845;SDS011;1938;50.812;7.738;2023-03-19T05:57:23;9.40;;;3.23;;
3845;SDS011;1938;50.812;7.738;2023-03-19T05:59:49;11.00;;;3.53;;
3845;SDS011;1938;50.812;7.738;2023-03-19T06:02:15;10.17;;;3.80;;
3845;SDS011;1938;50.812;7.738;2023-03-19T06:04:41;6.37;;;2.87;;
3845;SDS011;1938;50.812;7.738;2023-03-19T06:07:07;6.50;;;3.10;;
3845;SDS011;1938;50.812;7.738;2023-03-19T06:09:32;5.70;;;2.67;;
3845;SDS011;1938;50.812;7.738;2023-03-19T06:11:58;12.60;;;3.30;;
3845;SDS011;1938;50.812;7.738;2023-03-19T06:14:24;8.67;;;3.00;;
3845;SDS011;1938;50.812;7.738;2023-03-19T06:16:49;9.40;;;3.10;;
3845;SDS011;1938;50.812;7.738;2023-03-19T06:19:15;8.07;;;3.07;;
3845;SDS011;1938;50.812;7.738;2023-03-19T06:21:40;5.10;;;2.40;;
3845;SDS011;1938;50.812;7.738;2023-03-19T06:24:06;8.30;;;2.83;;
3845;SDS011;1938;50.812;7.738;2023-03-19T06:26:32;5.73;;;2.73;;
3845;SDS011;1938;50.812;7.738;2023-03-19T06:28:58;4.90;;;2.20;;
3845;SDS011;1938;50.812;7.738;2023-03-19T06:31:25;6.03;;;2.73;;
3845;SDS011;1938;50.812;7.738;2023-03-19T06:33:51;10.53;;;3.60;;
3845;SDS011;1938;50.812;7.738;2023-03-19T06:36:17;9.90;;;2.83;;
3845;SDS011;1938;50.812;7.738;2023-03-19T06:38:44;7.63;;;2.77;;
3845;SDS011;1938;50.812;7.738;2023-03-19T06:41:10;7.20;;;2.70;;
3845;SDS011;1938;50.812;7.738;2023-03-19T06:43:37;6.60;;;2.40;;
3845;SDS011;1938;50.812;7.738;2023-03-19T06:46:05;6.17;;;2.90;;
3845;SDS011;1938;50.812;7.738;2023-03-19T06:48:33;7.90;;;2.97;;
3845;SDS011;1938;50.812;7.738;2023-03-19T06:50:58;5.00;;;2.70;;
3845;SDS011;1938;50.812;7.738;2023-03-19T06:53:25;7.33;;;3.03;;
3845;SDS011;1938;50.812;7.738;2023-03-19T06:55:51;8.60;;;2.70;;
3845;SDS011;1938;50.812;7.738;2023-03-19T06:58:18;9.97;;;3.83;;
3845;SDS011;1938;50.812;7.738;2023-03-19T07:00:44;8.70;;;3.17;;
3845;SDS011;1938;50.812;7.738;2023-03-19T07:03:09;5.63;;;3.27;;
3845;SDS011;1938;50.812;7.738;2023-03-19T07:05:35;9.10;;;3.37;;
3845;SDS011;1938;50.812;7.738;2023-03-19T07:08:01;6.20;;;2.63;;
3845;SDS011;1938;50.812;7.738;2023-03-19T07:10:28;7.90;;;2.77;;
3845;SDS011;1938;50.812;7.738;2023-03-19T07:12:54;6.07;;;3.13;;
3845;SDS011;1938;50.812;7.738;2023-03-19T07:15:19;6.13;;;2.50;;
3845;SDS011;1938;50.812;7.738;2023-03-19T07:17:46;6.17;;;2.80;;
3845;SDS011;1938;50.812;7.738;2023-03-19T07:20:12;13.30;;;3.67;;
3845;SDS011;1938;50.812;7.738;2023-03-19T07:22:39;7.13;;;3.20;;
3845;SDS011;1938;50.812;7.738;2023-03-19T07:25:05;5.70;;;2.80;;
3845;SDS011;1938;50.812;7.738;2023-03-19T07:27:31;6.80;;;2.77;;
3845;SDS011;1938;50.812;7.738;2023-03-19T07:29:58;5.17;;;2.60;;
3845;SDS011;1938;50.812;7.738;2023-03-19T07:32:24;7.67;;;2.53;;
3845;SDS011;1938;50.812;7.738;2023-03-19T07:34:51;8.63;;;3.10;;
3845;SDS011;1938;50.812;7.738;2023-03-19T07:37:17;8.30;;;2.77;;
3845;SDS011;1938;50.812;7.738;2023-03-19T07:39:43;8.47;;;3.47;;
3845;SDS011;1938;50.812;7.738;2023-03-19T07:42:08;6.57;;;3.10;;
3845;SDS011;1938;50.812;7.738;2023-03-19T07:44:34;5.53;;;2.77;;
3845;SDS011;1938;50.812;7.738;2023-03-19T07:47:00;5.37;;;2.47;;
3845;SDS011;1938;50.812;7.738;2023-03-19T07:49:26;4.53;;;2.60;;
3845;SDS011;1938;50.812;7.738;2023-03-19T07:51:52;5.60;;;2.87;;
3845;SDS011;1938;50.812;7.738;2023-03-19T07:54:19;5.73;;;2.40;;
3845;SDS011;1938;50.812;7.738;2023-03-19T07:56:48;5.23;;;2.73;;
3845;SDS011;1938;50.812;7.738;2023-03-19T07:59:15;7.63;;;2.60;;
3845;SDS011;1938;50.812;7.738;2023-03-19T08:01:42;6.20;;;2.53;;
3845;SDS011;1938;50.812;7.738;2023-03-19T08:04:09;6.47;;;2.70;;
3845;SDS011;1938;50.812;7.738;2023-03-19T08:06:35;5.87;;;2.80;;
3845;SDS011;1938;50.812;7.738;2023-03-19T08:09:02;4.83;;;2.87;;
3845;SDS011;1938;50.812;7.738;2023-03-19T08:11:28;5.30;;;2.93;;
3845;SDS011;1938;50.812;7.738;2023-03-19T08:13:54;6.03;;;2.40;;
3845;SDS011;1938;50.812;7.738;2023-03-19T08:16:19;4.33;;;2.30;;
3845;SDS011;1938;50.812;7.738;2023-03-19T08:18:45;6.70;;;2.67;;
3845;SDS011;1938;50.812;7.738;2023-03-19T08:21:12;12.00;;;3.00;;
3845;SDS011;1938;50.812;7.738;2023-03-19T08:23:38;7.90;;;2.80;;
3845;SDS011;1938;50.812;7.738;2023-03-19T08:26:06;7.27;;;3.30;;
3845;SDS011;1938;50.812;7.738;2023-03-19T08:28:33;4.53;;;2.90;;
3845;SDS011;1938;50.812;7.738;2023-03-19T08:31:06;5.47;;;2.40;;
3845;SDS011;1938;50.812;7.738;2023-03-19T08:33:39;10.50;;;2.60;;
3845;SDS011;1938;50.812;7.738;2023-03-19T08:36:14;5.17;;;2.63;;
3845;SDS011;1938;50.812;7.738;2023-03-19T08:38:40;5.03;;;2.90;;
3845;SDS011;1938;50.812;7.738;2023-03-19T08:41:07;5.47;;;2.17;;
3845;SDS011;1938;50.812;7.738;2023-03-19T08:43:34;6.33;;;2.90;;
3845;SDS011;1938;50.812;7.738;2023-03-19T08:46:04;5.00;;;2.53;;
3845;SDS011;1938;50.812;7.738;2023-03-19T08:48:31;5.60;;;2.30;;
3845;SDS011;1938;50.812;7.738;2023-03-19T08:50:58;5.60;;;2.40;;
3845;SDS011;1938;50.812;7.738;2023-03-19T08:53:26;6.57;;;2.77;;
3845;SDS011;1938;50.812;7.738;2023-03-19T08:55:52;7.73;;;3.30;;
3845;SDS011;1938;50.812;7.738;2023-03-19T08:58:21;11.13;;;2.87;;
3845;SDS011;1938;50.812;7.738;2023-03-19T09:00:47;7.57;;;3.03;;
3845;SDS011;1938;50.812;7.738;2023-03-19T09:03:13;4.60;;;2.47;;
3845;SDS011;1938;50.812;7.738;2023-03-19T09:05:40;4.40;;;2.50;;
3845;SDS011;1938;50.812;7.738;2023-03-19T09:08:06;4.80;;;2.50;;
3845;SDS011;1938;50.812;7.738;2023-03-19T09:10:33;8.43;;;3.37;;
3845;SDS011;1938;50.812;7.738;2023-03-19T09:13:00;4.17;;;2.37;;
3845;SDS011;1938;50.812;7.738;2023-03-19T09:15:26;5.10;;;2.83;;
3845;SDS011;1938;50.812;7.738;2023-03-19T09:17:52;9.20;;;2.80;;
3845;SDS011;1938;50.812;7.738;2023-03-19T09:20:18;6.07;;;2.77;;
3845;SDS011;1938;50.812;7.738;2023-03-19T09:22:44;6.40;;;2.47;;
3845;SDS011;1938;50.812;7.738;2023-03-19T09:25:11;3.97;;;2.30;;
3845;SDS011;1938;50.812;7.738;2023-03-19T09:27:37;5.20;;;2.73;;
3845;SDS011;1938;50.812;7.738;2023-03-19T09:30:03;7.13;;;3.40;;
3845;SDS011;1938;50.812;7.738;2023-03-19T09:32:29;5.50;;;2.80;;
3845;SDS011;1938;50.812;7.738;2023-03-19T09:34:56;4.60;;;2.10;;
3845;SDS011;1938;50.812;7.738;2023-03-19T09:37:21;6.83;;;2.83;;
3845;SDS011;1938;50.812;7.738;2023-03-19T09:39:47;5.70;;;2.73;;
3845;SDS011;1938;50.812;7.738;2023-03-19T09:45:01;7.13;;;2.83;;
3845;SDS011;1938;50.812;7.738;2023-03-19T09:47:33;6.80;;;3.03;;
3845;SDS011;1938;50.812;7.738;2023-03-19T09:50:12;4.83;;;2.53;;
3845;SDS011;1938;50.812;7.738;2023-03-19T09:52:45;5.60;;;2.83;;
3845;SDS011;1938;50.812;7.738;2023-03-19T09:55:27;4.73;;;2.57;;
3845;SDS011;1938;50.812;7.738;2023-03-19T09:58:09;6.80;;;2.93;;
3845;SDS011;1938;50.812;7.738;2023-03-19T10:00:51;5.70;;;2.80;;
3845;SDS011;1938;50.812;7.738;2023-03-19T10:06:09;4.70;;;2.73;;
3845;SDS011;1938;50.812;7.738;2023-03-19T10:08:43;7.63;;;3.23;;
3845;SDS011;1938;50.812;7.738;2023-03-19T10:17:11;5.40;;;3.30;;
3845;SDS011;1938;50.812;7.738;2023-03-19T10:20:15;8.07;;;3.03;;
3845;SDS011;1938;50.812;7.738;2023-03-19T10:22:59;6.10;;;3.00;;
3845;SDS011;1938;50.812;7.738;2023-03-19T10:25:32;5.80;;;3.47;;
3845;SDS011;1938;50.812;7.738;2023-03-19T10:28:10;6.70;;;3.37;;
3845;SDS011;1938;50.812;7.738;2023-03-19T10:30:43;12.33;;;2.53;;
3845;SDS011;1938;50.812;7.738;2023-03-19T10:33:22;4.83;;;2.50;;
3845;SDS011;1938;50.812;7.738;2023-03-19T10:35:56;6.93;;;2.53;;
3845;SDS011;1938;50.812;7.738;2023-03-19T10:38:26;4.60;;;2.57;;
3845;SDS011;1938;50.812;7.738;2023-03-19T10:44:26;5.30;;;2.40;;
3845;SDS011;1938;50.812;7.738;2023-03-19T10:46:58;4.30;;;2.27;;
3845;SDS011;1938;50.812;7.738;2023-03-19T10:49:34;4.40;;;2.20;;
3845;SDS011;1938;50.812;7.738;2023-03-19T10:52:01;5.40;;;2.30;;
3845;SDS011;1938;50.812;7.738;2023-03-19T10:54:27;6.73;;;2.20;;
3845;SDS011;1938;50.812;7.738;2023-03-19T10:56:54;3.97;;;2.33;;
3845;SDS011;1938;50.812;7.738;2023-03-19T11:02:01;4.40;;;2.20;;
3845;SDS011;1938;50.812;7.738;2023-03-19T11:04:44;5.27;;;2.27;;
3845;SDS011;1938;50.812;7.738;2023-03-19T11:07:17;5.73;;;1.80;;
3845;SDS011;1938;50.812;7.738;2023-03-19T11:09:45;3.87;;;1.87;;
3845;SDS011;1938;50.812;7.738;2023-03-19T11:12:18;3.97;;;2.07;;
3845;SDS011;1938;50.812;7.738;2023-03-19T11:14:48;3.77;;;2.27;;
3845;SDS011;1938;50.812;7.738;2023-03-19T11:20:22;5.80;;;1.90;;
3845;SDS011;1938;50.812;7.738;2023-03-19T11:23:04;4.80;;;2.20;;
3845;SDS011;1938;50.812;7.738;2023-03-19T11:25:37;3.10;;;1.60;;
3845;SDS011;1938;50.812;7.738;2023-03-19T11:28:11;8.60;;;2.00;;
3845;SDS011;1938;50.812;7.738;2023-03-19T11:31:40;5.50;;;1.93;;
3845;SDS011;1938;50.812;7.738;2023-03-19T11:36:41;2.67;;;1.30;;
3845;SDS011;1938;50.812;7.738;2023-03-19T11:51:03;3.57;;;1.53;;
3845;SDS011;1938;50.812;7.738;2023-03-19T12:05:17;2.77;;;1.27;;
3845;SDS011;1938;50.812;7.738;2023-03-19T12:13:30;5.27;;;2.00;;
3845;SDS011;1938;50.812;7.738;2023-03-19T12:29:35;3.50;;;1.50;;
3845;SDS011;1938;50.812;7.738;2023-03-19T12:35:09;4.27;;;1.60;;
3845;SDS011;1938;50.812;7.738;2023-03-19T12:37:57;2.60;;;1.10;;
3845;SDS011;1938;50.812;7.738;2023-03-19T12:40:34;3.90;;;1.63;;
3845;SDS011;1938;50.812;7.738;2023-03-19T12:43:12;3.70;;;1.77;;
3845;SDS011;1938;50.812;7.738;2023-03-19T12:45:51;5.23;;;1.40;;
3845;SDS011;1938;50.812;7.738;2023-03-19T12:48:27;2.70;;;1.10;;
3845;SDS011;1938;50.812;7.738;2023-03-19T12:51:07;5.17;;;1.40;;
3845;SDS011;1938;50.812;7.738;2023-03-19T12:56:36;4.33;;;1.60;;
3845;SDS011;1938;50.812;7.738;2023-03-19T12:59:28;3.50;;;1.13;;
3845;SDS011;1938;50.812;7.738;2023-03-19T13:02:02;3.60;;;1.40;;
3845;SDS011;1938;50.812;7.738;2023-03-19T13:04:43;2.40;;;0.93;;
3845;SDS011;1938;50.812;7.738;2023-03-19T13:07:27;2.83;;;1.00;;
3845;SDS011;1938;50.812;7.738;2023-03-19T13:10:05;3.30;;;1.10;;
3845;SDS011;1938;50.812;7.738;2023-03-19T13:12:37;2.43;;;1.00;;
3845;SDS011;1938;50.812;7.738;2023-03-19T13:15:08;2.80;;;1.20;;
3845;SDS011;1938;50.812;7.738;2023-03-19T13:23:16;2.60;;;1.07;;
3845;SDS011;1938;50.812;7.738;2023-03-19T13:25:50;3.20;;;1.40;;
3845;SDS011;1938;50.812;7.738;2023-03-19T13:28:22;2.20;;;0.90;;
3845;SDS011;1938;50.812;7.738;2023-03-19T13:31:03;2.60;;;1.00;;
3845;SDS011;1938;50.812;7.738;2023-03-19T13:33:32;2.57;;;0.97;;
3845;SDS011;1938;50.812;7.738;2023-03-19T13:36:00;2.57;;;1.00;;
3845;SDS011;1938;50.812;7.738;2023-03-19T13:38:37;2.53;;;0.90;;
3845;SDS011;1938;50.812;7.738;2023-03-19T13:41:22;2.30;;;0.90;;
3845;SDS011;1938;50.812;7.738;2023-03-19T13:43:58;2.40;;;0.83;;
3845;SDS011;1938;50.812;7.738;2023-03-19T13:46:35;2.50;;;0.80;;
3845;SDS011;1938;50.812;7.738;2023-03-19T13:49:19;2.10;;;0.80;;
3845;SDS011;1938;50.812;7.738;2023-03-19T13:54:36;2.93;;;0.90;;
3845;SDS011;1938;50.812;7.738;2023-03-19T13:59:38;3.57;;;1.00;;
3845;SDS011;1938;50.812;7.738;2023-03-19T14:04:50;2.70;;;1.17;;
3845;SDS011;1938;50.812;7.738;2023-03-19T14:07:37;3.27;;;0.90;;
3845;SDS011;1938;50.812;7.738;2023-03-19T14:10:23;2.27;;;0.87;;
3845;SDS011;1938;50.812;7.738;2023-03-19T14:12:59;2.67;;;0.90;;
3845;SDS011;1938;50.812;7.738;2023-03-19T14:15:33;4.13;;;1.00;;
3845;SDS011;1938;50.812;7.738;2023-03-19T14:18:02;2.40;;;0.80;;
3845;SDS011;1938;50.812;7.738;2023-03-19T14:20:31;3.50;;;0.97;;
3845;SDS011;1938;50.812;7.738;2023-03-19T14:28:32;3.73;;;1.40;;
3845;SDS011;1938;50.812;7.738;2023-03-19T14:36:25;4.47;;;2.50;;
3845;SDS011;1938;50.812;7.738;2023-03-19T14:38:59;3.40;;;1.37;;
3845;SDS011;1938;50.812;7.738;2023-03-19T14:41:27;4.73;;;1.00;;
3845;SDS011;1938;50.812;7.738;2023-03-19T14:54:49;4.43;;;1.70;;
3845;SDS011;1938;50.812;7.738;2023-03-19T14:57:20;6.10;;;1.77;;
3845;SDS011;1938;50.812;7.738;2023-03-19T14:59:59;3.97;;;1.50;;
3845;SDS011;1938;50.812;7.738;2023-03-19T15:05:04;2.70;;;1.00;;
3845;SDS011;1938;50.812;7.738;2023-03-19T15:07:35;3.90;;;1.30;;
3845;SDS011;1938;50.812;7.738;2023-03-19T15:10:04;3.00;;;0.93;;
3845;SDS011;1938;50.812;7.738;2023-03-19T15:15:23;6.27;;;1.70;;
3845;SDS011;1938;50.812;7.738;2023-03-19T15:17:59;4.60;;;1.60;;
3845;SDS011;1938;50.812;7.738;2023-03-19T15:21:01;4.23;;;1.90;;
3845;SDS011;1938;50.812;7.738;2023-03-19T15:23:23;3.27;;;1.57;;
3845;SDS011;1938;50.812;7.738;2023-03-19T15:25:52;2.60;;;1.00;;
3845;SDS011;1938;50.812;7.738;2023-03-19T15:28:21;4.80;;;1.50;;
3845;SDS011;1938;50.812;7.738;2023-03-19T15:30:56;4.60;;;1.57;;
3845;SDS011;1938;50.812;7.738;2023-03-19T15:33:24;4.40;;;1.53;;
3845;SDS011;1938;50.812;7.738;2023-03-19T15:36:03;3.50;;;1.17;;
3845;SDS011;1938;50.812;7.738;2023-03-19T15:38:44;4.73;;;1.40;;
3845;SDS011;1938;50.812;7.738;2023-03-19T15:41:20;3.67;;;1.60;;
3845;SDS011;1938;50.812;7.738;2023-03-19T15:43:50;4.73;;;2.17;;
3845;SDS011;1938;50.812;7.738;2023-03-19T15:46:17;4.40;;;1.93;;
3845;SDS011;1938;50.812;7.738;2023-03-19T15:51:29;3.20;;;1.20;;
3845;SDS011;1938;50.812;7.738;2023-03-19T15:53:56;5.97;;;1.47;;
3845;SDS011;1938;50.812;7.738;2023-03-19T15:56:24;4.77;;;1.20;;
3845;SDS011;1938;50.812;7.738;2023-03-19T15:58:51;3.07;;;1.27;;
3845;SDS011;1938;50.812;7.738;2023-03-19T16:01:20;4.13;;;1.23;;
3845;SDS011;1938;50.812;7.738;2023-03-19T16:03:54;3.57;;;1.03;;
3845;SDS011;1938;50.812;7.738;2023-03-19T16:06:23;2.60;;;0.77;;
3845;SDS011;1938;50.812;7.738;2023-03-19T16:08:53;2.97;;;1.17;;
3845;SDS011;1938;50.812;7.738;2023-03-19T16:14:00;2.63;;;1.00;;
3845;SDS011;1938;50.812;7.738;2023-03-19T16:16:33;4.40;;;1.37;;
3845;SDS011;1938;50.812;7.738;2023-03-19T16:18:59;4.27;;;1.27;;
3845;SDS011;1938;50.812;7.738;2023-03-19T16:23:58;8.83;;;1.40;;
3845;SDS011;1938;50.812;7.738;2023-03-19T16:31:50;2.83;;;1.20;;
3845;SDS011;1938;50.812;7.738;2023-03-19T16:34:36;4.33;;;1.20;;
3845;SDS011;1938;50.812;7.738;2023-03-19T16:37:26;2.87;;;1.20;;
3845;SDS011;1938;50.812;7.738;2023-03-19T16:39:56;2.70;;;1.00;;
3845;SDS011;1938;50.812;7.738;2023-03-19T16:45:07;3.07;;;1.30;;
3845;SDS011;1938;50.812;7.738;2023-03-19T16:47:41;4.30;;;1.03;;
3845;SDS011;1938;50.812;7.738;2023-03-19T16:50:10;7.00;;;1.10;;
3845;SDS011;1938;50.812;7.738;2023-03-19T16:52:36;4.40;;;1.37;;
3845;SDS011;1938;50.812;7.738;2023-03-19T16:55:04;3.47;;;1.10;;
3845;SDS011;1938;50.812;7.738;2023-03-19T16:57:59;2.90;;;1.23;;
3845;SDS011;1938;50.812;7.738;2023-03-19T17:00:31;5.03;;;1.30;;
3845;SDS011;1938;50.812;7.738;2023-03-19T17:02:57;4.87;;;2.07;;
3845;SDS011;1938;50.812;7.738;2023-03-19T17:05:24;3.93;;;1.63;;
3845;SDS011;1938;50.812;7.738;2023-03-19T17:07:51;2.77;;;1.20;;
3845;SDS011;1938;50.812;7.738;2023-03-19T17:10:20;3.00;;;1.27;;
3845;SDS011;1938;50.812;7.738;2023-03-19T17:12:48;5.40;;;2.87;;
3845;SDS011;1938;50.812;7.738;2023-03-19T17:15:17;2.70;;;1.20;;
3845;SDS011;1938;50.812;7.738;2023-03-19T17:17:51;4.17;;;1.93;;
3845;SDS011;1938;50.812;7.738;2023-03-19T17:20:17;3.67;;;2.10;;
3845;SDS011;1938;50.812;7.738;2023-03-19T17:22:46;4.33;;;1.80;;
3845;SDS011;1938;50.812;7.738;2023-03-19T17:25:13;5.33;;;2.37;;
3845;SDS011;1938;50.812;7.738;2023-03-19T17:27:42;3.47;;;1.50;;
3845;SDS011;1938;50.812;7.738;2023-03-19T17:30:08;6.60;;;2.00;;
3845;SDS011;1938;50.812;7.738;2023-03-19T17:32:35;5.07;;;2.30;;
3845;SDS011;1938;50.812;7.738;2023-03-19T17:35:01;3.30;;;1.40;;
3845;SDS011;1938;50.812;7.738;2023-03-19T17:37:29;4.23;;;1.63;;
3845;SDS011;1938;50.812;7.738;2023-03-19T17:39:55;2.67;;;1.17;;
3845;SDS011;1938;50.812;7.738;2023-03-19T17:42:22;3.13;;;1.30;;